Refuge, Mississippi
Current Conditions -  °F | °C
As of 1:53 AM on Friday 24 Oct 2014 (Local Time) from KGLH Reporting Station
Clear Clear  
Wind Chill: 44°   Ceiling: Unl
Heat Index: 47°   Visibility: 10mi
Dew Point: 45°   Wind: 6mph
Humidity: 93%   Direction: 340°NNW
Pressure: 30.14"   Gusts: NA
Location:  33.2777°N, 90.9989°W
Report Text: KGLH 240653Z AUTO 34005KT 10SM CLR 08/07 A3014 RMK AO2 SLP213 T00830072
Loading
Personal Weather Stations






























Interactive Weather Map
Tropical Storm Tracking
New forecast layout! Learn more

10-Day Weather Forecast

Advertisements
Track Severe Weather on mobile